sensor_id;sensor_type;location;lat;lon;timestamp;P1;durP1;ratioP1;P2;durP2;ratioP2
10801;SDS011;5453;50.852;7.102;2023-09-19T00:01:12;1.45;;;1.00;;
10801;SDS011;5453;50.852;7.102;2023-09-19T00:03:45;1.17;;;0.90;;
10801;SDS011;5453;50.852;7.102;2023-09-19T00:06:17;1.83;;;1.05;;
10801;SDS011;5453;50.852;7.102;2023-09-19T00:08:50;1.30;;;0.82;;
10801;SDS011;5453;50.852;7.102;2023-09-19T00:11:23;2.53;;;1.00;;
10801;SDS011;5453;50.852;7.102;2023-09-19T00:13:57;1.73;;;1.00;;
10801;SDS011;5453;50.852;7.102;2023-09-19T00:16:30;1.83;;;0.60;;
10801;SDS011;5453;50.852;7.102;2023-09-19T00:19:03;2.10;;;0.73;;
10801;SDS011;5453;50.852;7.102;2023-09-19T00:21:39;2.05;;;0.93;;
10801;SDS011;5453;50.852;7.102;2023-09-19T00:24:12;1.95;;;0.93;;
10801;SDS011;5453;50.852;7.102;2023-09-19T00:26:47;2.33;;;1.10;;
10801;SDS011;5453;50.852;7.102;2023-09-19T00:29:21;1.35;;;0.82;;
10801;SDS011;5453;50.852;7.102;2023-09-19T00:31:55;3.47;;;1.13;;
10801;SDS011;5453;50.852;7.102;2023-09-19T00:34:28;2.63;;;0.90;;
10801;SDS011;5453;50.852;7.102;2023-09-19T00:37:00;1.23;;;0.60;;
10801;SDS011;5453;50.852;7.102;2023-09-19T00:39:34;1.85;;;0.90;;
10801;SDS011;5453;50.852;7.102;2023-09-19T00:42:07;2.58;;;0.90;;
10801;SDS011;5453;50.852;7.102;2023-09-19T00:44:44;2.35;;;0.70;;
10801;SDS011;5453;50.852;7.102;2023-09-19T00:47:16;1.73;;;0.90;;
10801;SDS011;5453;50.852;7.102;2023-09-19T00:49:49;2.60;;;1.02;;
10801;SDS011;5453;50.852;7.102;2023-09-19T00:52:21;3.25;;;1.00;;
10801;SDS011;5453;50.852;7.102;2023-09-19T00:54:58;2.28;;;0.95;;
10801;SDS011;5453;50.852;7.102;2023-09-19T00:57:32;2.13;;;0.82;;
10801;SDS011;5453;50.852;7.102;2023-09-19T01:00:08;2.10;;;0.80;;
10801;SDS011;5453;50.852;7.102;2023-09-19T01:02:48;2.28;;;0.88;;
10801;SDS011;5453;50.852;7.102;2023-09-19T01:05:21;2.95;;;0.90;;
10801;SDS011;5453;50.852;7.102;2023-09-19T01:07:55;0.88;;;0.70;;
10801;SDS011;5453;50.852;7.102;2023-09-19T01:10:27;2.85;;;0.80;;
10801;SDS011;5453;50.852;7.102;2023-09-19T01:13:08;1.75;;;0.82;;
10801;SDS011;5453;50.852;7.102;2023-09-19T01:15:55;2.15;;;0.90;;
10801;SDS011;5453;50.852;7.102;2023-09-19T01:21:34;2.00;;;0.98;;
10801;SDS011;5453;50.852;7.102;2023-09-19T01:24:37;1.42;;;0.75;;
10801;SDS011;5453;50.852;7.102;2023-09-19T01:27:53;1.67;;;0.70;;
10801;SDS011;5453;50.852;7.102;2023-09-19T01:30:57;1.17;;;0.80;;
10801;SDS011;5453;50.852;7.102;2023-09-19T01:36:30;1.60;;;0.90;;
10801;SDS011;5453;50.852;7.102;2023-09-19T01:39:06;1.40;;;0.90;;
10801;SDS011;5453;50.852;7.102;2023-09-19T01:41:54;1.95;;;0.73;;
10801;SDS011;5453;50.852;7.102;2023-09-19T01:44:36;3.80;;;1.02;;
10801;SDS011;5453;50.852;7.102;2023-09-19T01:47:27;3.10;;;0.90;;
10801;SDS011;5453;50.852;7.102;2023-09-19T01:50:09;2.35;;;0.93;;
10801;SDS011;5453;50.852;7.102;2023-09-19T01:52:52;1.75;;;0.82;;
10801;SDS011;5453;50.852;7.102;2023-09-19T01:55:31;2.33;;;1.00;;
10801;SDS011;5453;50.852;7.102;2023-09-19T01:58:14;2.03;;;1.00;;
10801;SDS011;5453;50.852;7.102;2023-09-19T02:00:58;2.67;;;1.05;;
10801;SDS011;5453;50.852;7.102;2023-09-19T02:03:36;2.30;;;0.90;;
10801;SDS011;5453;50.852;7.102;2023-09-19T02:06:13;1.27;;;0.90;;
10801;SDS011;5453;50.852;7.102;2023-09-19T02:08:46;3.38;;;0.93;;
10801;SDS011;5453;50.852;7.102;2023-09-19T02:11:18;2.50;;;0.90;;
10801;SDS011;5453;50.852;7.102;2023-09-19T02:13:51;4.47;;;0.80;;
10801;SDS011;5453;50.852;7.102;2023-09-19T02:16:24;1.70;;;0.70;;
10801;SDS011;5453;50.852;7.102;2023-09-19T02:18:58;4.55;;;1.00;;
10801;SDS011;5453;50.852;7.102;2023-09-19T02:21:35;3.33;;;0.95;;
10801;SDS011;5453;50.852;7.102;2023-09-19T02:24:10;5.20;;;1.08;;
10801;SDS011;5453;50.852;7.102;2023-09-19T02:26:44;2.00;;;0.82;;
10801;SDS011;5453;50.852;7.102;2023-09-19T02:29:17;1.80;;;0.82;;
10801;SDS011;5453;50.852;7.102;2023-09-19T02:31:49;3.97;;;1.38;;
10801;SDS011;5453;50.852;7.102;2023-09-19T02:34:23;1.25;;;0.75;;
10801;SDS011;5453;50.852;7.102;2023-09-19T02:36:56;2.50;;;0.88;;
10801;SDS011;5453;50.852;7.102;2023-09-19T02:39:28;3.28;;;1.20;;
10801;SDS011;5453;50.852;7.102;2023-09-19T02:42:01;4.00;;;1.10;;
10801;SDS011;5453;50.852;7.102;2023-09-19T02:44:35;4.25;;;1.00;;
10801;SDS011;5453;50.852;7.102;2023-09-19T02:47:11;2.97;;;0.70;;
10801;SDS011;5453;50.852;7.102;2023-09-19T02:49:46;3.08;;;1.15;;
10801;SDS011;5453;50.852;7.102;2023-09-19T02:52:19;3.08;;;1.00;;
10801;SDS011;5453;50.852;7.102;2023-09-19T02:54:52;5.05;;;1.05;;
10801;SDS011;5453;50.852;7.102;2023-09-19T02:57:24;3.50;;;1.00;;
10801;SDS011;5453;50.852;7.102;2023-09-19T02:59:58;2.28;;;0.73;;
10801;SDS011;5453;50.852;7.102;2023-09-19T03:02:31;5.43;;;1.85;;
10801;SDS011;5453;50.852;7.102;2023-09-19T03:05:10;3.95;;;1.10;;
10801;SDS011;5453;50.852;7.102;2023-09-19T03:07:44;2.28;;;1.00;;
10801;SDS011;5453;50.852;7.102;2023-09-19T03:10:17;2.65;;;0.70;;
10801;SDS011;5453;50.852;7.102;2023-09-19T03:12:51;5.28;;;0.93;;
10801;SDS011;5453;50.852;7.102;2023-09-19T03:15:24;2.30;;;1.00;;
10801;SDS011;5453;50.852;7.102;2023-09-19T03:17:57;2.15;;;0.88;;
10801;SDS011;5453;50.852;7.102;2023-09-19T03:20:31;2.42;;;0.82;;
10801;SDS011;5453;50.852;7.102;2023-09-19T03:23:04;2.25;;;0.77;;
10801;SDS011;5453;50.852;7.102;2023-09-19T03:25:39;4.15;;;1.00;;
10801;SDS011;5453;50.852;7.102;2023-09-19T03:28:12;4.85;;;1.00;;
10801;SDS011;5453;50.852;7.102;2023-09-19T03:30:46;3.58;;;0.90;;
10801;SDS011;5453;50.852;7.102;2023-09-19T03:33:30;2.85;;;0.80;;
10801;SDS011;5453;50.852;7.102;2023-09-19T03:36:05;3.53;;;1.10;;
10801;SDS011;5453;50.852;7.102;2023-09-19T03:38:38;3.63;;;0.90;;
10801;SDS011;5453;50.852;7.102;2023-09-19T03:41:11;3.90;;;1.00;;
10801;SDS011;5453;50.852;7.102;2023-09-19T03:43:44;3.58;;;0.90;;
10801;SDS011;5453;50.852;7.102;2023-09-19T03:46:17;1.52;;;0.85;;
10801;SDS011;5453;50.852;7.102;2023-09-19T03:48:51;4.53;;;0.88;;
10801;SDS011;5453;50.852;7.102;2023-09-19T03:51:26;3.65;;;0.90;;
10801;SDS011;5453;50.852;7.102;2023-09-19T03:53:59;4.32;;;1.35;;
10801;SDS011;5453;50.852;7.102;2023-09-19T03:56:31;3.10;;;1.00;;
10801;SDS011;5453;50.852;7.102;2023-09-19T03:59:04;3.20;;;0.73;;
10801;SDS011;5453;50.852;7.102;2023-09-19T04:01:39;1.15;;;0.80;;
10801;SDS011;5453;50.852;7.102;2023-09-19T04:04:12;3.80;;;0.82;;
10801;SDS011;5453;50.852;7.102;2023-09-19T04:06:46;2.17;;;0.88;;
10801;SDS011;5453;50.852;7.102;2023-09-19T04:09:18;3.13;;;0.80;;
10801;SDS011;5453;50.852;7.102;2023-09-19T04:11:50;3.40;;;1.05;;
10801;SDS011;5453;50.852;7.102;2023-09-19T04:14:23;3.17;;;0.80;;
10801;SDS011;5453;50.852;7.102;2023-09-19T04:16:55;3.15;;;0.95;;
10801;SDS011;5453;50.852;7.102;2023-09-19T04:19:28;5.22;;;1.50;;
10801;SDS011;5453;50.852;7.102;2023-09-19T04:22:02;4.18;;;1.00;;
10801;SDS011;5453;50.852;7.102;2023-09-19T04:24:34;4.13;;;0.98;;
10801;SDS011;5453;50.852;7.102;2023-09-19T04:27:08;3.03;;;0.88;;
10801;SDS011;5453;50.852;7.102;2023-09-19T04:29:42;4.28;;;1.20;;
10801;SDS011;5453;50.852;7.102;2023-09-19T04:32:15;5.07;;;1.20;;
10801;SDS011;5453;50.852;7.102;2023-09-19T04:34:47;5.50;;;1.45;;
10801;SDS011;5453;50.852;7.102;2023-09-19T04:37:21;2.70;;;1.13;;
10801;SDS011;5453;50.852;7.102;2023-09-19T04:39:53;2.95;;;1.00;;
10801;SDS011;5453;50.852;7.102;2023-09-19T04:42:26;2.08;;;0.70;;
10801;SDS011;5453;50.852;7.102;2023-09-19T04:45:00;5.97;;;1.10;;
10801;SDS011;5453;50.852;7.102;2023-09-19T04:47:33;7.03;;;1.25;;
10801;SDS011;5453;50.852;7.102;2023-09-19T04:50:07;4.45;;;1.10;;
10801;SDS011;5453;50.852;7.102;2023-09-19T04:52:45;1.73;;;1.00;;
10801;SDS011;5453;50.852;7.102;2023-09-19T04:55:21;3.45;;;1.00;;
10801;SDS011;5453;50.852;7.102;2023-09-19T04:57:53;2.00;;;0.85;;
10801;SDS011;5453;50.852;7.102;2023-09-19T05:00:26;3.75;;;1.02;;
10801;SDS011;5453;50.852;7.102;2023-09-19T05:03:00;5.30;;;1.35;;
10801;SDS011;5453;50.852;7.102;2023-09-19T05:05:37;2.25;;;0.95;;
10801;SDS011;5453;50.852;7.102;2023-09-19T05:08:12;2.60;;;0.85;;
10801;SDS011;5453;50.852;7.102;2023-09-19T05:10:45;2.83;;;1.15;;
10801;SDS011;5453;50.852;7.102;2023-09-19T05:13:21;7.32;;;1.77;;
10801;SDS011;5453;50.852;7.102;2023-09-19T05:15:54;5.47;;;1.25;;
10801;SDS011;5453;50.852;7.102;2023-09-19T05:18:26;4.05;;;1.27;;
10801;SDS011;5453;50.852;7.102;2023-09-19T05:21:01;5.10;;;1.10;;
10801;SDS011;5453;50.852;7.102;2023-09-19T05:26:08;5.05;;;1.20;;
10801;SDS011;5453;50.852;7.102;2023-09-19T05:28:42;5.50;;;1.23;;
10801;SDS011;5453;50.852;7.102;2023-09-19T05:31:18;5.15;;;1.20;;
10801;SDS011;5453;50.852;7.102;2023-09-19T05:33:50;7.03;;;1.45;;
10801;SDS011;5453;50.852;7.102;2023-09-19T05:36:24;4.88;;;1.10;;
10801;SDS011;5453;50.852;7.102;2023-09-19T05:39:01;4.50;;;1.17;;
10801;SDS011;5453;50.852;7.102;2023-09-19T05:41:37;7.10;;;1.42;;
10801;SDS011;5453;50.852;7.102;2023-09-19T05:44:10;6.30;;;1.40;;
10801;SDS011;5453;50.852;7.102;2023-09-19T05:46:42;3.70;;;1.05;;
10801;SDS011;5453;50.852;7.102;2023-09-19T05:49:15;2.85;;;1.17;;
10801;SDS011;5453;50.852;7.102;2023-09-19T05:51:48;4.20;;;1.35;;
10801;SDS011;5453;50.852;7.102;2023-09-19T05:54:25;4.40;;;1.23;;
10801;SDS011;5453;50.852;7.102;2023-09-19T05:56:57;5.15;;;1.23;;
10801;SDS011;5453;50.852;7.102;2023-09-19T05:59:30;4.47;;;1.13;;
10801;SDS011;5453;50.852;7.102;2023-09-19T06:02:03;5.60;;;1.00;;
10801;SDS011;5453;50.852;7.102;2023-09-19T06:04:36;4.25;;;1.40;;
10801;SDS011;5453;50.852;7.102;2023-09-19T06:07:11;4.03;;;1.23;;
10801;SDS011;5453;50.852;7.102;2023-09-19T06:09:45;5.03;;;1.50;;
10801;SDS011;5453;50.852;7.102;2023-09-19T06:12:17;3.22;;;1.20;;
10801;SDS011;5453;50.852;7.102;2023-09-19T06:14:49;4.95;;;1.50;;
10801;SDS011;5453;50.852;7.102;2023-09-19T06:17:22;4.28;;;1.25;;
10801;SDS011;5453;50.852;7.102;2023-09-19T06:19:54;4.25;;;1.58;;
10801;SDS011;5453;50.852;7.102;2023-09-19T06:22:27;3.15;;;1.20;;
10801;SDS011;5453;50.852;7.102;2023-09-19T06:25:00;4.38;;;1.20;;
10801;SDS011;5453;50.852;7.102;2023-09-19T06:27:36;4.82;;;1.50;;
10801;SDS011;5453;50.852;7.102;2023-09-19T06:30:11;3.88;;;1.20;;
10801;SDS011;5453;50.852;7.102;2023-09-19T06:32:44;2.80;;;1.30;;
10801;SDS011;5453;50.852;7.102;2023-09-19T06:35:17;4.22;;;1.20;;
10801;SDS011;5453;50.852;7.102;2023-09-19T06:37:49;4.15;;;1.13;;
10801;SDS011;5453;50.852;7.102;2023-09-19T06:40:24;5.40;;;1.10;;
10801;SDS011;5453;50.852;7.102;2023-09-19T06:42:58;5.90;;;1.42;;
10801;SDS011;5453;50.852;7.102;2023-09-19T06:45:32;3.75;;;1.27;;
10801;SDS011;5453;50.852;7.102;2023-09-19T06:48:05;5.45;;;1.70;;
10801;SDS011;5453;50.852;7.102;2023-09-19T06:50:37;3.00;;;1.20;;
10801;SDS011;5453;50.852;7.102;2023-09-19T06:53:11;4.60;;;1.30;;
10801;SDS011;5453;50.852;7.102;2023-09-19T06:55:48;4.22;;;1.23;;
10801;SDS011;5453;50.852;7.102;2023-09-19T06:58:20;4.80;;;1.65;;
10801;SDS011;5453;50.852;7.102;2023-09-19T07:00:53;4.93;;;1.52;;
10801;SDS011;5453;50.852;7.102;2023-09-19T07:03:26;5.75;;;1.45;;
10801;SDS011;5453;50.852;7.102;2023-09-19T07:05:59;3.58;;;1.13;;
10801;SDS011;5453;50.852;7.102;2023-09-19T07:08:31;3.22;;;1.23;;
10801;SDS011;5453;50.852;7.102;2023-09-19T07:11:05;3.35;;;1.20;;
10801;SDS011;5453;50.852;7.102;2023-09-19T07:13:37;5.45;;;1.40;;
10801;SDS011;5453;50.852;7.102;2023-09-19T07:16:09;4.15;;;1.20;;
10801;SDS011;5453;50.852;7.102;2023-09-19T07:18:43;6.85;;;1.38;;
10801;SDS011;5453;50.852;7.102;2023-09-19T07:21:16;5.03;;;1.13;;
10801;SDS011;5453;50.852;7.102;2023-09-19T07:23:51;4.03;;;1.33;;
10801;SDS011;5453;50.852;7.102;2023-09-19T07:26:25;4.88;;;1.65;;
10801;SDS011;5453;50.852;7.102;2023-09-19T07:28:58;3.03;;;1.30;;
10801;SDS011;5453;50.852;7.102;2023-09-19T07:31:32;6.35;;;1.17;;
10801;SDS011;5453;50.852;7.102;2023-09-19T07:34:05;6.30;;;1.15;;
10801;SDS011;5453;50.852;7.102;2023-09-19T07:36:38;5.07;;;1.40;;
10801;SDS011;5453;50.852;7.102;2023-09-19T07:39:12;6.15;;;1.50;;
10801;SDS011;5453;50.852;7.102;2023-09-19T07:41:49;8.05;;;1.30;;
10801;SDS011;5453;50.852;7.102;2023-09-19T07:44:21;3.15;;;0.90;;
10801;SDS011;5453;50.852;7.102;2023-09-19T07:46:56;5.72;;;1.48;;
10801;SDS011;5453;50.852;7.102;2023-09-19T07:49:28;8.70;;;1.85;;
10801;SDS011;5453;50.852;7.102;2023-09-19T07:52:00;3.83;;;1.00;;
10801;SDS011;5453;50.852;7.102;2023-09-19T07:54:33;5.30;;;1.30;;
10801;SDS011;5453;50.852;7.102;2023-09-19T07:57:07;3.45;;;1.23;;
10801;SDS011;5453;50.852;7.102;2023-09-19T07:59:40;6.57;;;1.25;;
10801;SDS011;5453;50.852;7.102;2023-09-19T08:02:13;4.68;;;1.52;;
10801;SDS011;5453;50.852;7.102;2023-09-19T08:04:46;6.40;;;1.23;;
10801;SDS011;5453;50.852;7.102;2023-09-19T08:07:19;3.95;;;1.35;;
10801;SDS011;5453;50.852;7.102;2023-09-19T08:09:56;5.60;;;1.52;;
10801;SDS011;5453;50.852;7.102;2023-09-19T08:12:30;4.85;;;1.55;;
10801;SDS011;5453;50.852;7.102;2023-09-19T08:15:03;6.78;;;1.40;;
10801;SDS011;5453;50.852;7.102;2023-09-19T08:17:39;5.75;;;1.40;;
10801;SDS011;5453;50.852;7.102;2023-09-19T08:20:12;6.18;;;1.35;;
10801;SDS011;5453;50.852;7.102;2023-09-19T08:22:46;5.18;;;1.23;;
10801;SDS011;5453;50.852;7.102;2023-09-19T08:25:20;3.90;;;1.15;;
10801;SDS011;5453;50.852;7.102;2023-09-19T08:27:58;3.78;;;1.17;;
10801;SDS011;5453;50.852;7.102;2023-09-19T08:30:38;5.53;;;1.30;;
10801;SDS011;5453;50.852;7.102;2023-09-19T08:33:11;3.70;;;1.40;;
10801;SDS011;5453;50.852;7.102;2023-09-19T08:35:45;7.85;;;1.50;;
10801;SDS011;5453;50.852;7.102;2023-09-19T08:38:17;3.40;;;1.02;;
10801;SDS011;5453;50.852;7.102;2023-09-19T08:40:50;6.35;;;1.20;;
10801;SDS011;5453;50.852;7.102;2023-09-19T08:43:24;5.20;;;1.45;;
10801;SDS011;5453;50.852;7.102;2023-09-19T08:45:58;4.18;;;1.20;;
10801;SDS011;5453;50.852;7.102;2023-09-19T08:48:44;4.95;;;1.20;;
10801;SDS011;5453;50.852;7.102;2023-09-19T08:51:21;4.60;;;1.10;;
10801;SDS011;5453;50.852;7.102;2023-09-19T08:54:02;5.93;;;1.30;;
10801;SDS011;5453;50.852;7.102;2023-09-19T08:56:40;5.97;;;1.27;;
10801;SDS011;5453;50.852;7.102;2023-09-19T08:59:16;2.20;;;0.90;;
10801;SDS011;5453;50.852;7.102;2023-09-19T09:01:58;4.72;;;1.33;;
10801;SDS011;5453;50.852;7.102;2023-09-19T09:04:30;5.65;;;1.13;;
10801;SDS011;5453;50.852;7.102;2023-09-19T09:07:06;4.63;;;1.42;;
10801;SDS011;5453;50.852;7.102;2023-09-19T09:09:46;5.88;;;1.50;;
10801;SDS011;5453;50.852;7.102;2023-09-19T09:12:18;2.90;;;0.90;;
10801;SDS011;5453;50.852;7.102;2023-09-19T09:14:52;3.85;;;1.13;;
10801;SDS011;5453;50.852;7.102;2023-09-19T09:17:24;4.20;;;1.08;;
10801;SDS011;5453;50.852;7.102;2023-09-19T09:20:00;3.58;;;0.93;;
10801;SDS011;5453;50.852;7.102;2023-09-19T09:22:33;3.65;;;0.98;;
10801;SDS011;5453;50.852;7.102;2023-09-19T09:25:06;5.30;;;0.98;;
10801;SDS011;5453;50.852;7.102;2023-09-19T09:27:40;3.75;;;1.00;;
10801;SDS011;5453;50.852;7.102;2023-09-19T09:30:16;4.20;;;1.20;;
10801;SDS011;5453;50.852;7.102;2023-09-19T09:33:08;4.70;;;1.05;;
10801;SDS011;5453;50.852;7.102;2023-09-19T09:35:49;3.03;;;1.05;;
10801;SDS011;5453;50.852;7.102;2023-09-19T09:38:24;3.58;;;0.95;;
10801;SDS011;5453;50.852;7.102;2023-09-19T09:40:59;3.50;;;0.93;;
10801;SDS011;5453;50.852;7.102;2023-09-19T09:43:37;3.67;;;1.15;;
10801;SDS011;5453;50.852;7.102;2023-09-19T09:46:14;2.03;;;0.82;;
10801;SDS011;5453;50.852;7.102;2023-09-19T09:49:22;3.40;;;0.93;;
10801;SDS011;5453;50.852;7.102;2023-09-19T09:51:58;3.53;;;1.00;;
10801;SDS011;5453;50.852;7.102;2023-09-19T09:54:35;3.75;;;1.15;;
10801;SDS011;5453;50.852;7.102;2023-09-19T09:57:08;2.42;;;0.73;;
10801;SDS011;5453;50.852;7.102;2023-09-19T09:59:50;2.97;;;0.90;;
10801;SDS011;5453;50.852;7.102;2023-09-19T10:02:30;5.38;;;1.40;;
10801;SDS011;5453;50.852;7.102;2023-09-19T10:05:11;3.78;;;1.10;;
10801;SDS011;5453;50.852;7.102;2023-09-19T10:07:54;3.67;;;1.00;;
10801;SDS011;5453;50.852;7.102;2023-09-19T10:10:31;3.03;;;1.30;;
10801;SDS011;5453;50.852;7.102;2023-09-19T10:13:14;5.28;;;1.00;;
10801;SDS011;5453;50.852;7.102;2023-09-19T10:15:51;2.85;;;0.90;;
10801;SDS011;5453;50.852;7.102;2023-09-19T10:18:27;2.50;;;0.95;;
10801;SDS011;5453;50.852;7.102;2023-09-19T10:21:00;2.88;;;1.10;;
10801;SDS011;5453;50.852;7.102;2023-09-19T10:23:36;3.92;;;1.15;;
10801;SDS011;5453;50.852;7.102;2023-09-19T10:26:15;4.28;;;0.80;;
10801;SDS011;5453;50.852;7.102;2023-09-19T10:28:49;4.20;;;1.10;;
10801;SDS011;5453;50.852;7.102;2023-09-19T10:31:24;2.47;;;1.00;;
10801;SDS011;5453;50.852;7.102;2023-09-19T10:34:00;6.30;;;1.15;;
10801;SDS011;5453;50.852;7.102;2023-09-19T10:36:35;5.28;;;1.13;;
10801;SDS011;5453;50.852;7.102;2023-09-19T10:39:09;2.60;;;0.80;;
10801;SDS011;5453;50.852;7.102;2023-09-19T10:41:43;3.40;;;0.90;;
10801;SDS011;5453;50.852;7.102;2023-09-19T10:44:24;5.07;;;1.10;;
10801;SDS011;5453;50.852;7.102;2023-09-19T10:46:58;2.80;;;1.00;;
10801;SDS011;5453;50.852;7.102;2023-09-19T10:49:32;4.53;;;1.10;;
10801;SDS011;5453;50.852;7.102;2023-09-19T10:52:05;3.13;;;1.30;;
10801;SDS011;5453;50.852;7.102;2023-09-19T10:54:42;4.65;;;1.10;;
10801;SDS011;5453;50.852;7.102;2023-09-19T10:57:19;2.50;;;0.80;;
10801;SDS011;5453;50.852;7.102;2023-09-19T11:00:00;2.97;;;1.00;;
10801;SDS011;5453;50.852;7.102;2023-09-19T11:06:01;3.50;;;1.23;;
10801;SDS011;5453;50.852;7.102;2023-09-19T11:08:57;2.92;;;1.10;;
10801;SDS011;5453;50.852;7.102;2023-09-19T11:11:46;2.97;;;0.90;;
10801;SDS011;5453;50.852;7.102;2023-09-19T11:20:21;2.15;;;0.90;;
10801;SDS011;5453;50.852;7.102;2023-09-19T11:23:22;3.97;;;1.10;;
10801;SDS011;5453;50.852;7.102;2023-09-19T11:26:01;3.03;;;1.10;;
10801;SDS011;5453;50.852;7.102;2023-09-19T11:28:35;3.05;;;1.08;;
10801;SDS011;5453;50.852;7.102;2023-09-19T11:40:52;3.50;;;1.10;;
10801;SDS011;5453;50.852;7.102;2023-09-19T11:47:08;4.03;;;1.30;;
10801;SDS011;5453;50.852;7.102;2023-09-19T11:49:43;4.22;;;1.33;;
10801;SDS011;5453;50.852;7.102;2023-09-19T11:54:55;4.15;;;1.02;;
10801;SDS011;5453;50.852;7.102;2023-09-19T11:57:29;3.55;;;1.02;;
10801;SDS011;5453;50.852;7.102;2023-09-19T12:00:12;3.33;;;0.95;;
10801;SDS011;5453;50.852;7.102;2023-09-19T12:02:49;3.05;;;1.10;;
10801;SDS011;5453;50.852;7.102;2023-09-19T12:05:28;2.65;;;0.98;;
10801;SDS011;5453;50.852;7.102;2023-09-19T12:08:04;4.00;;;0.90;;
10801;SDS011;5453;50.852;7.102;2023-09-19T12:10:44;3.25;;;1.48;;
10801;SDS011;5453;50.852;7.102;2023-09-19T12:13:19;3.00;;;1.08;;
10801;SDS011;5453;50.852;7.102;2023-09-19T12:15:52;2.70;;;0.85;;
10801;SDS011;5453;50.852;7.102;2023-09-19T12:18:27;4.15;;;1.00;;
10801;SDS011;5453;50.852;7.102;2023-09-19T12:21:00;3.05;;;0.85;;
10801;SDS011;5453;50.852;7.102;2023-09-19T12:23:35;3.70;;;1.00;;
10801;SDS011;5453;50.852;7.102;2023-09-19T12:26:10;3.58;;;1.02;;
10801;SDS011;5453;50.852;7.102;2023-09-19T12:28:46;5.07;;;1.20;;
10801;SDS011;5453;50.852;7.102;2023-09-19T12:31:19;4.13;;;1.20;;
10801;SDS011;5453;50.852;7.102;2023-09-19T12:33:52;3.40;;;1.02;;
10801;SDS011;5453;50.852;7.102;2023-09-19T12:36:26;3.75;;;1.05;;
10801;SDS011;5453;50.852;7.102;2023-09-19T12:39:00;3.65;;;1.15;;
10801;SDS011;5453;50.852;7.102;2023-09-19T12:41:39;4.88;;;1.02;;
10801;SDS011;5453;50.852;7.102;2023-09-19T12:44:13;2.67;;;1.05;;
10801;SDS011;5453;50.852;7.102;2023-09-19T12:46:46;3.45;;;1.10;;
10801;SDS011;5453;50.852;7.102;2023-09-19T12:49:18;4.38;;;1.10;;
10801;SDS011;5453;50.852;7.102;2023-09-19T12:51:54;2.80;;;0.95;;
10801;SDS011;5453;50.852;7.102;2023-09-19T12:57:24;2.72;;;1.05;;
10801;SDS011;5453;50.852;7.102;2023-09-19T12:59:58;3.88;;;1.10;;
10801;SDS011;5453;50.852;7.102;2023-09-19T13:02:31;2.45;;;0.90;;
10801;SDS011;5453;50.852;7.102;2023-09-19T13:05:04;2.90;;;0.77;;
10801;SDS011;5453;50.852;7.102;2023-09-19T13:07:40;3.13;;;1.02;;
10801;SDS011;5453;50.852;7.102;2023-09-19T13:10:17;2.03;;;1.00;;
10801;SDS011;5453;50.852;7.102;2023-09-19T13:12:54;3.40;;;0.90;;
10801;SDS011;5453;50.852;7.102;2023-09-19T13:15:28;3.80;;;1.00;;
10801;SDS011;5453;50.852;7.102;2023-09-19T13:18:23;1.55;;;0.70;;
10801;SDS011;5453;50.852;7.102;2023-09-19T13:21:06;1.75;;;0.63;;
10801;SDS011;5453;50.852;7.102;2023-09-19T13:23:41;3.40;;;1.00;;
10801;SDS011;5453;50.852;7.102;2023-09-19T13:26:14;2.75;;;1.10;;
10801;SDS011;5453;50.852;7.102;2023-09-19T13:28:47;2.92;;;0.73;;
10801;SDS011;5453;50.852;7.102;2023-09-19T13:31:21;6.43;;;0.80;;
10801;SDS011;5453;50.852;7.102;2023-09-19T13:33:54;4.63;;;0.93;;
10801;SDS011;5453;50.852;7.102;2023-09-19T13:36:29;1.98;;;0.65;;
10801;SDS011;5453;50.852;7.102;2023-09-19T13:39:01;1.73;;;0.70;;
10801;SDS011;5453;50.852;7.102;2023-09-19T13:41:35;1.55;;;0.85;;
10801;SDS011;5453;50.852;7.102;2023-09-19T13:44:11;2.70;;;0.85;;
10801;SDS011;5453;50.852;7.102;2023-09-19T13:46:45;4.50;;;0.75;;
10801;SDS011;5453;50.852;7.102;2023-09-19T13:49:17;3.10;;;0.93;;
10801;SDS011;5453;50.852;7.102;2023-09-19T13:51:51;1.20;;;0.60;;
10801;SDS011;5453;50.852;7.102;2023-09-19T13:54:27;2.13;;;0.82;;
10801;SDS011;5453;50.852;7.102;2023-09-19T13:56:59;2.90;;;0.70;;
10801;SDS011;5453;50.852;7.102;2023-09-19T13:59:32;1.90;;;0.70;;
10801;SDS011;5453;50.852;7.102;2023-09-19T14:02:05;1.20;;;0.68;;
10801;SDS011;5453;50.852;7.102;2023-09-19T14:04:38;2.70;;;0.80;;
10801;SDS011;5453;50.852;7.102;2023-09-19T14:07:10;1.80;;;0.63;;
10801;SDS011;5453;50.852;7.102;2023-09-19T14:09:45;1.60;;;0.80;;
10801;SDS011;5453;50.852;7.102;2023-09-19T14:12:17;1.33;;;0.68;;
10801;SDS011;5453;50.852;7.102;2023-09-19T14:14:50;1.60;;;0.75;;
10801;SDS011;5453;50.852;7.102;2023-09-19T14:17:24;2.35;;;0.70;;
10801;SDS011;5453;50.852;7.102;2023-09-19T14:19:57;1.73;;;0.70;;
10801;SDS011;5453;50.852;7.102;2023-09-19T14:22:30;2.05;;;0.60;;
10801;SDS011;5453;50.852;7.102;2023-09-19T14:25:04;1.13;;;0.40;;
10801;SDS011;5453;50.852;7.102;2023-09-19T14:27:37;2.83;;;0.60;;
10801;SDS011;5453;50.852;7.102;2023-09-19T14:30:10;3.13;;;0.80;;
10801;SDS011;5453;50.852;7.102;2023-09-19T14:32:45;3.38;;;0.90;;
10801;SDS011;5453;50.852;7.102;2023-09-19T14:35:17;1.58;;;0.75;;
10801;SDS011;5453;50.852;7.102;2023-09-19T14:37:50;1.98;;;0.57;;
10801;SDS011;5453;50.852;7.102;2023-09-19T14:40:22;2.40;;;1.00;;
10801;SDS011;5453;50.852;7.102;2023-09-19T14:42:55;1.13;;;0.65;;
10801;SDS011;5453;50.852;7.102;2023-09-19T14:45:28;2.35;;;0.70;;
10801;SDS011;5453;50.852;7.102;2023-09-19T14:48:03;2.67;;;0.70;;
10801;SDS011;5453;50.852;7.102;2023-09-19T14:50:36;3.33;;;0.60;;
10801;SDS011;5453;50.852;7.102;2023-09-19T14:53:09;1.58;;;0.60;;
10801;SDS011;5453;50.852;7.102;2023-09-19T14:55:43;2.67;;;0.55;;
10801;SDS011;5453;50.852;7.102;2023-09-19T14:58:21;2.53;;;0.50;;
10801;SDS011;5453;50.852;7.102;2023-09-19T15:01:02;2.05;;;0.80;;
10801;SDS011;5453;50.852;7.102;2023-09-19T15:03:37;1.48;;;0.60;;
10801;SDS011;5453;50.852;7.102;2023-09-19T15:06:11;3.25;;;0.80;;
10801;SDS011;5453;50.852;7.102;2023-09-19T15:08:45;1.17;;;0.63;;
10801;SDS011;5453;50.852;7.102;2023-09-19T15:11:20;0.57;;;0.45;;
10801;SDS011;5453;50.852;7.102;2023-09-19T15:13:53;1.15;;;0.50;;
10801;SDS011;5453;50.852;7.102;2023-09-19T15:16:25;1.98;;;0.77;;
10801;SDS011;5453;50.852;7.102;2023-09-19T15:18:59;1.45;;;0.70;;
10801;SDS011;5453;50.852;7.102;2023-09-19T15:21:31;1.38;;;0.52;;
10801;SDS011;5453;50.852;7.102;2023-09-19T15:24:04;1.00;;;0.50;;
10801;SDS011;5453;50.852;7.102;2023-09-19T15:26:42;1.80;;;0.80;;
10801;SDS011;5453;50.852;7.102;2023-09-19T15:29:16;2.55;;;0.40;;
10801;SDS011;5453;50.852;7.102;2023-09-19T15:31:50;0.73;;;0.50;;
10801;SDS011;5453;50.852;7.102;2023-09-19T15:34:24;1.52;;;0.60;;
10801;SDS011;5453;50.852;7.102;2023-09-19T15:36:56;3.70;;;1.00;;
10801;SDS011;5453;50.852;7.102;2023-09-19T15:39:29;1.35;;;0.55;;
10801;SDS011;5453;50.852;7.102;2023-09-19T15:42:03;1.08;;;0.50;;
10801;SDS011;5453;50.852;7.102;2023-09-19T15:44:36;1.50;;;0.55;;
10801;SDS011;5453;50.852;7.102;2023-09-19T15:47:08;3.00;;;0.73;;
10801;SDS011;5453;50.852;7.102;2023-09-19T15:49:42;1.02;;;0.52;;
10801;SDS011;5453;50.852;7.102;2023-09-19T15:52:16;3.22;;;0.70;;
10801;SDS011;5453;50.852;7.102;2023-09-19T15:54:52;2.42;;;0.57;;
10801;SDS011;5453;50.852;7.102;2023-09-19T15:57:24;2.67;;;0.52;;
10801;SDS011;5453;50.852;7.102;2023-09-19T15:59:58;2.20;;;0.55;;
10801;SDS011;5453;50.852;7.102;2023-09-19T16:02:45;2.20;;;0.40;;
10801;SDS011;5453;50.852;7.102;2023-09-19T16:05:22;3.00;;;0.70;;
10801;SDS011;5453;50.852;7.102;2023-09-19T16:07:54;2.63;;;0.63;;
10801;SDS011;5453;50.852;7.102;2023-09-19T16:10:27;1.63;;;0.60;;
10801;SDS011;5453;50.852;7.102;2023-09-19T16:12:59;2.38;;;0.60;;
10801;SDS011;5453;50.852;7.102;2023-09-19T16:15:31;1.38;;;0.50;;
10801;SDS011;5453;50.852;7.102;2023-09-19T16:18:04;0.90;;;0.60;;
10801;SDS011;5453;50.852;7.102;2023-09-19T16:20:41;1.00;;;0.40;;
10801;SDS011;5453;50.852;7.102;2023-09-19T16:23:13;2.10;;;0.63;;
10801;SDS011;5453;50.852;7.102;2023-09-19T16:25:46;3.10;;;0.57;;